Time;durP1;ratioP1;P1;durP2;ratioP2;P2;SDS_P1;SDS_P2;PMS_P1;PMS_P2;Temp;Humidity;BMP_temperature;BMP_pressure;BME280_temperature;BME280_humidity;BME280_pressure;Samples;Min_cycle;Max_cycle;Signal;HPM_P1;HPM_P2
2023/04/18 00:00:36;;;;;;;31.55;17.92;;;8.30;99.90;;;;;;5062442;28;20033;-76
2023/04/18 00:03:01;;;;;;;32.17;16.98;;;8.30;99.90;;;;;;5062537;28;20031;-75
2023/04/18 00:05:27;;;;;;;28.75;16.90;;;8.20;99.90;;;;;;5063632;28;20060;-76
2023/04/18 00:07:52;;;;;;;31.02;17.05;;;8.30;99.90;;;;;;5062333;28;21426;-75
2023/04/18 00:10:18;;;;;;;34.15;17.50;;;8.30;99.90;;;;;;5062445;28;20033;-76
2023/04/18 00:12:43;;;;;;;30.75;16.60;;;8.30;99.90;;;;;;5062452;28;20020;-78
2023/04/18 00:15:10;;;;;;;32.13;17.30;;;8.30;99.90;;;;;;5062488;28;20017;-76
2023/04/18 00:17:39;;;;;;;30.98;17.48;;;8.20;99.90;;;;;;5062526;28;20047;-79
2023/04/18 00:20:10;;;;;;;32.92;17.20;;;8.20;99.90;;;;;;5062181;28;20043;-75
2023/04/18 00:22:41;;;;;;;31.75;16.75;;;8.20;99.90;;;;;;5063447;28;20027;-75
2023/04/18 00:25:07;;;;;;;32.97;16.70;;;8.20;99.90;;;;;;5062428;28;20025;-75
2023/04/18 00:27:33;;;;;;;35.50;17.98;;;8.20;99.90;;;;;;5061734;28;20062;-78
2023/04/18 00:29:58;;;;;;;35.17;17.98;;;8.20;99.90;;;;;;5063405;28;20043;-75
2023/04/18 00:32:24;;;;;;;30.30;17.42;;;8.20;99.90;;;;;;5063365;28;20033;-76
2023/04/18 00:34:49;;;;;;;32.50;17.30;;;8.20;99.90;;;;;;5062293;28;20087;-73
2023/04/18 00:37:15;;;;;;;36.53;17.17;;;8.20;99.90;;;;;;5061543;28;20422;-75
2023/04/18 00:39:40;;;;;;;35.33;17.92;;;8.20;99.90;;;;;;5063075;28;20029;-76
2023/04/18 00:42:06;;;;;;;32.92;18.05;;;8.20;99.90;;;;;;5061844;28;20271;-76
2023/04/18 00:44:31;;;;;;;35.10;17.88;;;8.20;99.90;;;;;;5061569;28;20131;-76
2023/04/18 00:46:57;;;;;;;34.40;17.73;;;8.10;99.90;;;;;;5062537;28;20056;-77
2023/04/18 00:49:23;;;;;;;42.72;19.33;;;8.10;99.90;;;;;;5061530;28;20017;-73
2023/04/18 00:51:49;;;;;;;35.22;18.15;;;8.10;99.90;;;;;;5061680;28;20626;-77
2023/04/18 00:54:17;;;;;;;37.05;19.30;;;8.10;99.90;;;;;;5061866;28;20021;-76
2023/04/18 00:56:44;;;;;;;33.92;18.02;;;8.10;99.90;;;;;;5062822;28;20025;-76
2023/04/18 00:59:10;;;;;;;34.63;18.75;;;8.00;99.90;;;;;;5062499;28;20017;-76
2023/04/18 01:01:36;;;;;;;39.33;19.50;;;8.00;99.90;;;;;;5062924;28;20016;-79
2023/04/18 01:04:02;;;;;;;36.97;19.13;;;8.00;99.90;;;;;;5062789;28;20031;-78
2023/04/18 01:06:28;;;;;;;35.08;19.55;;;8.00;99.90;;;;;;5062458;28;20100;-78
2023/04/18 01:08:55;;;;;;;40.97;20.52;;;8.00;99.90;;;;;;5061627;28;20044;-79
2023/04/18 01:11:20;;;;;;;35.72;19.42;;;8.00;99.90;;;;;;5060782;28;20052;-78
2023/04/18 01:14:05;;;;;;;36.20;19.95;;;7.90;99.90;;;;;;5061399;28;20017;-77
2023/04/18 01:16:32;;;;;;;35.88;19.23;;;7.90;99.90;;;;;;5060596;28;20107;-79
2023/04/18 01:19:01;;;;;;;34.67;18.70;;;7.90;99.90;;;;;;5062558;28;20025;-77
2023/04/18 01:21:30;;;;;;;41.72;20.83;;;7.90;99.90;;;;;;5060938;28;20052;-78
2023/04/18 01:24:10;;;;;;;35.60;20.33;;;7.90;99.90;;;;;;5060941;28;20029;-76
2023/04/18 01:26:36;;;;;;;34.88;19.35;;;7.80;99.90;;;;;;5061063;28;20037;-75
2023/04/18 01:29:01;;;;;;;36.28;20.17;;;7.80;99.90;;;;;;5059812;28;20029;-75
2023/04/18 01:31:27;;;;;;;37.90;20.70;;;7.80;99.90;;;;;;5061279;28;20067;-75
2023/04/18 01:33:52;;;;;;;38.20;20.95;;;7.80;99.90;;;;;;5061183;28;20021;-75
2023/04/18 01:36:18;;;;;;;40.33;20.25;;;7.70;99.90;;;;;;5058881;28;20043;-75
2023/04/18 01:38:44;;;;;;;39.17;21.52;;;7.70;99.90;;;;;;5059892;28;20017;-78
2023/04/18 01:41:09;;;;;;;39.13;21.02;;;7.70;99.90;;;;;;5059873;28;20147;-75
2023/04/18 01:43:35;;;;;;;42.97;20.10;;;7.70;99.90;;;;;;5061126;28;20084;-77
2023/04/18 01:46:00;;;;;;;42.20;21.33;;;7.70;99.90;;;;;;5060871;28;20437;-75
2023/04/18 01:48:26;;;;;;;43.58;20.92;;;7.70;99.90;;;;;;5060142;28;20029;-77
2023/04/18 01:50:52;;;;;;;37.75;20.25;;;7.70;99.90;;;;;;5059019;28;20021;-77
2023/04/18 01:53:17;;;;;;;41.30;22.02;;;7.70;99.90;;;;;;5060995;28;20044;-77
2023/04/18 01:55:43;;;;;;;45.75;21.73;;;7.70;99.90;;;;;;5059792;28;20535;-75
2023/04/18 01:58:08;;;;;;;38.83;20.65;;;7.70;99.90;;;;;;5059915;28;20048;-74
2023/04/18 02:00:34;;;;;;;40.75;21.38;;;7.70;99.90;;;;;;5059685;28;20017;-75
2023/04/18 02:02:59;;;;;;;37.40;20.88;;;7.70;99.90;;;;;;5059359;28;20401;-75
2023/04/18 02:05:28;;;;;;;43.50;22.48;;;7.60;99.90;;;;;;5059555;28;20461;-78
2023/04/18 02:07:53;;;;;;;39.22;21.38;;;7.60;99.90;;;;;;5059484;28;20037;-75
2023/04/18 02:10:19;;;;;;;42.38;20.92;;;7.60;99.90;;;;;;5058957;28;20758;-77
2023/04/18 02:12:45;;;;;;;40.50;21.23;;;7.60;99.90;;;;;;5059691;28;20021;-76
2023/04/18 02:15:11;;;;;;;38.35;20.60;;;7.60;99.90;;;;;;5060651;28;20116;-76
2023/04/18 02:17:37;;;;;;;38.75;21.30;;;7.60;99.90;;;;;;5059650;28;20029;-77
2023/04/18 02:20:03;;;;;;;44.55;22.05;;;7.60;99.90;;;;;;5059130;28;20033;-75
2023/04/18 02:22:28;;;;;;;40.55;22.00;;;7.50;99.90;;;;;;5059479;28;20025;-77
2023/04/18 02:24:54;;;;;;;40.53;22.08;;;7.50;99.90;;;;;;5060366;28;20075;-75
2023/04/18 02:27:19;;;;;;;45.47;22.55;;;7.50;99.90;;;;;;5059381;28;20076;-76
2023/04/18 02:29:45;;;;;;;43.92;22.98;;;7.50;99.90;;;;;;5061162;28;20029;-76
2023/04/18 02:32:11;;;;;;;40.97;22.08;;;7.50;99.90;;;;;;5061774;28;20111;-77
2023/04/18 02:34:36;;;;;;;45.25;23.10;;;7.50;99.90;;;;;;5060134;28;20029;-76
2023/04/18 02:37:03;;;;;;;48.17;22.80;;;7.40;99.90;;;;;;5059182;28;20025;-75
2023/04/18 02:39:28;;;;;;;45.72;22.90;;;7.40;99.90;;;;;;5059186;28;20037;-77
2023/04/18 02:41:54;;;;;;;47.85;23.75;;;7.40;99.90;;;;;;5058742;28;20044;-76
2023/04/18 02:44:20;;;;;;;45.45;23.52;;;7.40;99.90;;;;;;5059381;28;20163;-76
2023/04/18 02:46:48;;;;;;;41.70;23.23;;;7.40;99.90;;;;;;5058774;28;20477;-76
2023/04/18 02:49:14;;;;;;;47.25;23.83;;;7.40;99.90;;;;;;5060275;28;20045;-76
2023/04/18 02:51:39;;;;;;;43.55;24.50;;;7.40;99.90;;;;;;5060833;28;20032;-76
2023/04/18 02:54:05;;;;;;;50.90;24.95;;;7.40;99.90;;;;;;5060087;28;20021;-75
2023/04/18 02:56:31;;;;;;;49.83;26.05;;;7.40;99.90;;;;;;5058129;28;20021;-76
2023/04/18 02:58:56;;;;;;;47.88;25.70;;;7.40;99.90;;;;;;5060240;28;20029;-78
2023/04/18 03:01:22;;;;;;;53.20;26.40;;;7.50;99.90;;;;;;5059109;28;20100;-78
2023/04/18 03:03:47;;;;;;;47.97;25.95;;;7.40;99.90;;;;;;5060719;28;20385;-75
2023/04/18 03:06:13;;;;;;;54.60;27.45;;;7.30;99.90;;;;;;5060234;28;20021;-76
2023/04/18 03:08:39;;;;;;;53.60;27.05;;;7.30;99.90;;;;;;5059339;28;20044;-79
2023/04/18 03:11:05;;;;;;;53.45;27.63;;;7.30;99.90;;;;;;5060219;28;20561;-77
2023/04/18 03:13:34;;;;;;;50.40;27.23;;;7.40;99.90;;;;;;5059582;28;20055;-78
2023/04/18 03:15:59;;;;;;;53.88;28.48;;;7.40;99.90;;;;;;5058503;28;20017;-76
2023/04/18 03:18:25;;;;;;;56.60;29.05;;;7.30;99.90;;;;;;5058891;28;20081;-76
2023/04/18 03:20:51;;;;;;;54.75;27.05;;;7.30;99.90;;;;;;5058096;28;20085;-75
2023/04/18 03:23:16;;;;;;;59.20;28.98;;;7.30;99.90;;;;;;5061240;28;20029;-77
2023/04/18 03:25:42;;;;;;;57.17;28.48;;;7.30;99.90;;;;;;5062564;28;20108;-74
2023/04/18 03:28:07;;;;;;;54.25;28.05;;;7.30;99.90;;;;;;5062535;28;20029;-77
2023/04/18 03:30:33;;;;;;;57.58;29.27;;;7.30;99.90;;;;;;5063687;28;20048;-76
2023/04/18 03:33:01;;;;;;;59.15;29.38;;;7.30;99.90;;;;;;5063177;28;20090;-73
2023/04/18 03:35:27;;;;;;;57.28;29.08;;;7.30;99.90;;;;;;5063216;28;20013;-78
2023/04/18 03:37:52;;;;;;;56.15;28.75;;;7.30;99.90;;;;;;5062511;28;20067;-76
2023/04/18 03:40:18;;;;;;;56.72;27.90;;;7.30;99.90;;;;;;5063429;28;20027;-78
2023/04/18 03:42:43;;;;;;;49.35;27.20;;;7.30;99.90;;;;;;5063692;28;20028;-76
2023/04/18 03:45:10;;;;;;;54.15;27.40;;;7.30;99.90;;;;;;5063245;28;20081;-77
2023/04/18 03:47:36;;;;;;;56.03;28.00;;;7.30;99.90;;;;;;5062064;28;20055;-76
2023/04/18 03:50:02;;;;;;;57.45;29.20;;;7.30;99.90;;;;;;5060892;28;20017;-78
2023/04/18 03:52:28;;;;;;;56.53;27.58;;;7.30;99.90;;;;;;5063776;28;20460;-77
2023/04/18 03:54:53;;;;;;;51.67;26.33;;;7.20;99.90;;;;;;5062090;28;20025;-76
2023/04/18 03:57:19;;;;;;;49.58;26.10;;;7.20;99.90;;;;;;5062974;28;20833;-76
2023/04/18 03:59:44;;;;;;;52.97;26.73;;;7.20;99.90;;;;;;5063232;28;20032;-75
2023/04/18 04:02:10;;;;;;;54.85;26.27;;;7.20;99.90;;;;;;5063267;28;20025;-76
2023/04/18 04:04:35;;;;;;;55.47;26.63;;;7.20;99.90;;;;;;5061101;28;20031;-78
2023/04/18 04:07:01;;;;;;;51.33;25.27;;;7.20;99.90;;;;;;5062693;28;20096;-75
2023/04/18 04:09:27;;;;;;;50.42;25.90;;;7.20;99.90;;;;;;5061373;28;20025;-77
2023/04/18 04:11:52;;;;;;;50.17;26.33;;;7.20;99.90;;;;;;5062680;28;20025;-77
2023/04/18 04:14:18;;;;;;;51.50;25.45;;;7.20;99.90;;;;;;5061445;28;20021;-78
2023/04/18 04:16:44;;;;;;;47.92;25.67;;;7.10;99.90;;;;;;5060937;28;20079;-76
2023/04/18 04:19:09;;;;;;;60.25;26.38;;;7.10;99.90;;;;;;5062137;28;20044;-76
2023/04/18 04:21:35;;;;;;;48.10;24.80;;;7.10;99.90;;;;;;5063310;28;20021;-75
2023/04/18 04:24:00;;;;;;;56.80;26.17;;;7.10;99.90;;;;;;5062623;28;20017;-75
2023/04/18 04:26:27;;;;;;;49.13;25.83;;;7.10;99.90;;;;;;5060993;28;20066;-76
2023/04/18 04:28:52;;;;;;;52.33;26.60;;;7.10;99.90;;;;;;5061514;28;20024;-74
2023/04/18 04:31:18;;;;;;;53.63;26.90;;;7.10;99.90;;;;;;5062585;28;20036;-72
2023/04/18 04:33:45;;;;;;;47.92;25.25;;;7.00;99.90;;;;;;5060707;28;20076;-73
2023/04/18 04:36:13;;;;;;;48.60;25.42;;;7.00;99.90;;;;;;5060674;28;20090;-72
2023/04/18 04:38:40;;;;;;;50.88;25.38;;;7.00;99.90;;;;;;5061675;28;20021;-73
2023/04/18 04:41:06;;;;;;;51.17;24.98;;;7.00;99.90;;;;;;5062906;28;20462;-72
2023/04/18 04:43:32;;;;;;;49.05;24.73;;;7.00;99.90;;;;;;5061626;28;20017;-72
2023/04/18 04:45:58;;;;;;;49.95;24.77;;;7.00;99.90;;;;;;5062334;28;20135;-72
2023/04/18 04:48:24;;;;;;;50.17;24.55;;;7.00;99.90;;;;;;5061743;28;20494;-72
2023/04/18 04:50:52;;;;;;;51.75;26.60;;;7.00;99.90;;;;;;5061407;28;20044;-72
2023/04/18 04:53:18;;;;;;;52.63;25.23;;;7.00;99.90;;;;;;5061329;28;20017;-73
2023/04/18 04:55:44;;;;;;;53.00;26.45;;;7.00;99.90;;;;;;5063366;28;20052;-73
2023/04/18 04:58:09;;;;;;;51.08;25.75;;;7.00;99.90;;;;;;5062080;28;20017;-73
2023/04/18 05:00:35;;;;;;;50.30;24.90;;;6.90;99.90;;;;;;5061933;28;20096;-73
2023/04/18 05:03:01;;;;;;;49.00;25.15;;;6.90;99.90;;;;;;5061843;28;20029;-72
2023/04/18 05:05:26;;;;;;;46.55;24.33;;;6.90;99.90;;;;;;5063059;28;20033;-72
2023/04/18 05:07:53;;;;;;;46.20;24.45;;;6.80;99.90;;;;;;5061136;28;20037;-73
2023/04/18 05:10:22;;;;;;;51.08;24.48;;;6.80;99.90;;;;;;5058885;28;20359;-72
2023/04/18 05:12:47;;;;;;;47.10;24.27;;;6.80;99.90;;;;;;5057706;28;20029;-70
2023/04/18 05:15:15;;;;;;;48.83;24.58;;;6.80;99.90;;;;;;5055773;28;20040;-71
2023/04/18 05:17:41;;;;;;;44.55;23.45;;;6.80;99.90;;;;;;5060074;28;20032;-70
2023/04/18 05:20:07;;;;;;;50.28;25.25;;;6.80;99.90;;;;;;5062758;28;20064;-73
2023/04/18 05:22:33;;;;;;;49.30;23.70;;;6.90;99.90;;;;;;5061932;28;20035;-72
2023/04/18 05:24:58;;;;;;;49.08;24.60;;;6.90;99.90;;;;;;5061394;28;20017;-71
2023/04/18 05:27:24;;;;;;;43.25;22.95;;;7.00;99.90;;;;;;5060738;28;20045;-71
2023/04/18 05:29:50;;;;;;;51.80;22.50;;;7.00;99.90;;;;;;5059686;28;20047;-72
2023/04/18 05:32:16;;;;;;;43.88;22.65;;;7.00;99.90;;;;;;5060975;28;20037;-74
2023/04/18 05:34:41;;;;;;;45.97;23.67;;;7.10;99.90;;;;;;5059277;28;20040;-74
2023/04/18 05:37:07;;;;;;;41.20;22.25;;;7.10;99.90;;;;;;5058650;28;20029;-73
2023/04/18 05:39:33;;;;;;;43.35;22.27;;;7.10;99.90;;;;;;5058638;28;20047;-72
2023/04/18 05:41:58;;;;;;;45.60;22.80;;;7.10;99.90;;;;;;5057682;28;20028;-71
2023/04/18 05:44:24;;;;;;;48.00;22.40;;;7.20;99.90;;;;;;5052631;28;20053;-74
2023/04/18 05:46:52;;;;;;;52.25;23.20;;;7.20;99.90;;;;;;5059191;28;20049;-71
2023/04/18 05:49:18;;;;;;;49.60;25.23;;;7.20;99.90;;;;;;5059574;28;20021;-75
2023/04/18 05:51:45;;;;;;;40.35;21.90;;;7.30;99.90;;;;;;5060851;28;20036;-73
2023/04/18 05:54:10;;;;;;;44.10;22.35;;;7.30;99.90;;;;;;5058216;28;20081;-71
2023/04/18 05:56:36;;;;;;;49.05;22.42;;;7.30;99.90;;;;;;5060806;28;20043;-74
2023/04/18 05:59:02;;;;;;;44.80;22.50;;;7.40;99.90;;;;;;5059486;28;20028;-71
2023/04/18 06:01:27;;;;;;;43.10;22.73;;;7.40;99.90;;;;;;5060717;28;20025;-72
2023/04/18 06:03:55;;;;;;;44.85;23.13;;;7.50;99.90;;;;;;5061534;28;20032;-71
2023/04/18 06:06:21;;;;;;;40.90;21.88;;;7.50;99.90;;;;;;5060187;28;20013;-70
2023/04/18 06:08:47;;;;;;;41.15;22.00;;;7.50;99.90;;;;;;5062230;28;20083;-71
2023/04/18 06:11:14;;;;;;;41.78;21.73;;;7.50;99.90;;;;;;5062117;28;20109;-72
2023/04/18 06:13:40;;;;;;;46.25;22.00;;;7.40;99.90;;;;;;5061921;28;20013;-71
2023/04/18 06:16:07;;;;;;;38.55;21.90;;;7.40;99.90;;;;;;5062266;28;20140;-69
2023/04/18 06:18:32;;;;;;;44.58;22.17;;;7.40;99.90;;;;;;5060019;28;20032;-71
2023/04/18 06:20:58;;;;;;;43.35;21.35;;;7.50;99.90;;;;;;5059959;28;20036;-70
2023/04/18 06:23:24;;;;;;;39.58;21.67;;;7.50;99.90;;;;;;5061297;28;20036;-71
2023/04/18 06:25:50;;;;;;;38.67;21.27;;;7.50;99.90;;;;;;5061464;28;20240;-70
2023/04/18 06:28:16;;;;;;;43.70;22.67;;;7.50;99.90;;;;;;5061209;28;20036;-71
2023/04/18 06:30:42;;;;;;;40.65;20.98;;;7.50;99.90;;;;;;5062103;28;20047;-71
2023/04/18 06:33:09;;;;;;;46.50;21.73;;;7.50;99.90;;;;;;5057697;28;20029;-70
2023/04/18 06:35:35;;;;;;;42.20;21.75;;;7.60;99.90;;;;;;5059071;28;20025;-71
2023/04/18 06:38:01;;;;;;;43.90;21.65;;;7.60;99.90;;;;;;5059650;28;20029;-72
2023/04/18 06:40:27;;;;;;;47.92;21.35;;;7.70;99.90;;;;;;5059729;28;20047;-70
2023/04/18 06:42:53;;;;;;;42.58;21.48;;;7.70;99.90;;;;;;5061749;28;20531;-71
2023/04/18 06:45:18;;;;;;;38.33;19.80;;;7.80;99.90;;;;;;5061706;28;20040;-70
2023/04/18 06:47:44;;;;;;;36.90;20.50;;;7.90;99.90;;;;;;5061993;28;20045;-71
2023/04/18 06:50:10;;;;;;;38.67;20.02;;;8.00;99.90;;;;;;5060253;28;20168;-71
2023/04/18 06:52:39;;;;;;;35.05;19.88;;;8.00;99.90;;;;;;5061621;28;20102;-71
2023/04/18 06:55:07;;;;;;;36.30;20.05;;;8.10;99.90;;;;;;5059902;28;20029;-72
2023/04/18 06:57:33;;;;;;;39.33;21.15;;;8.10;99.90;;;;;;5063354;28;20025;-72
2023/04/18 06:59:59;;;;;;;38.58;19.63;;;8.20;99.90;;;;;;5065465;28;20025;-72
2023/04/18 07:02:24;;;;;;;35.55;19.27;;;8.20;99.90;;;;;;5064254;28;20115;-71
2023/04/18 07:04:50;;;;;;;39.95;20.60;;;8.30;99.90;;;;;;5065356;28;20033;-72
2023/04/18 07:07:16;;;;;;;39.90;19.95;;;8.50;99.90;;;;;;5065083;28;20041;-70
2023/04/18 07:09:41;;;;;;;36.42;18.33;;;8.60;99.90;;;;;;5065187;28;20389;-69
2023/04/18 07:12:07;;;;;;;36.15;18.25;;;8.60;99.90;;;;;;5065636;28;20028;-70
2023/04/18 07:14:32;;;;;;;37.17;18.70;;;8.70;99.90;;;;;;5065433;28;20103;-70
2023/04/18 07:16:59;;;;;;;34.17;18.65;;;8.80;99.90;;;;;;5064534;28;20021;-72
2023/04/18 07:19:25;;;;;;;31.08;17.98;;;8.80;99.90;;;;;;5065090;28;20017;-69
2023/04/18 07:21:50;;;;;;;34.67;18.00;;;8.90;99.90;;;;;;5063877;28;20040;-69
2023/04/18 07:24:16;;;;;;;33.35;17.45;;;9.00;99.90;;;;;;5065044;28;20025;-71
2023/04/18 07:26:42;;;;;;;32.95;17.85;;;9.20;99.90;;;;;;5064939;28;20037;-71
2023/04/18 07:29:07;;;;;;;32.08;16.95;;;9.30;99.90;;;;;;5065143;28;20021;-74
2023/04/18 07:31:33;;;;;;;34.47;18.45;;;9.40;99.90;;;;;;5064670;28;20033;-71
2023/04/18 07:33:59;;;;;;;32.45;17.95;;;9.60;99.90;;;;;;5064804;28;20029;-72
2023/04/18 07:36:25;;;;;;;32.65;16.08;;;9.70;99.90;;;;;;5064797;28;20025;-71
2023/04/18 07:38:50;;;;;;;29.10;16.38;;;9.80;99.90;;;;;;5064770;28;20025;-70
2023/04/18 07:41:16;;;;;;;33.50;17.05;;;9.90;99.90;;;;;;5063638;28;20070;-71
2023/04/18 07:43:43;;;;;;;35.22;18.05;;;10.10;99.90;;;;;;5063381;28;20124;-71
2023/04/18 07:46:09;;;;;;;32.08;17.70;;;10.20;99.90;;;;;;5064596;28;20052;-72
2023/04/18 07:48:35;;;;;;;29.63;16.15;;;10.20;99.90;;;;;;5063950;28;20127;-72
2023/04/18 07:51:01;;;;;;;31.38;16.83;;;10.30;99.90;;;;;;5064204;28;20028;-72
2023/04/18 07:53:27;;;;;;;33.67;17.33;;;10.50;99.90;;;;;;5060358;28;20036;-71
2023/04/18 07:55:53;;;;;;;29.63;16.88;;;10.60;99.90;;;;;;5063655;28;20025;-71
2023/04/18 07:58:19;;;;;;;30.60;17.35;;;10.70;99.90;;;;;;5064199;28;20021;-71
2023/04/18 08:00:46;;;;;;;29.08;15.23;;;10.70;99.90;;;;;;5058744;28;20036;-70
2023/04/18 08:03:12;;;;;;;31.63;16.38;;;10.70;99.90;;;;;;5062869;28;20120;-73
2023/04/18 08:05:38;;;;;;;28.52;15.30;;;10.80;99.90;;;;;;5061578;28;20068;-72
2023/04/18 08:08:10;;;;;;;33.20;15.80;;;10.90;99.90;;;;;;5061672;28;20041;-75
2023/04/18 08:10:36;;;;;;;32.10;15.77;;;10.90;99.90;;;;;;5062807;28;20048;-74
2023/04/18 08:13:02;;;;;;;26.42;14.27;;;11.00;99.90;;;;;;5062503;28;20013;-69
2023/04/18 08:15:30;;;;;;;26.23;14.55;;;11.10;99.90;;;;;;5060109;28;20394;-74
2023/04/18 08:17:56;;;;;;;28.33;15.00;;;11.20;99.90;;;;;;5059161;28;20389;-70
2023/04/18 08:20:22;;;;;;;30.30;14.95;;;11.30;99.90;;;;;;5059723;28;20055;-71
2023/04/18 08:22:48;;;;;;;29.17;14.57;;;11.40;99.90;;;;;;5063115;28;20043;-72
2023/04/18 08:25:13;;;;;;;20.48;13.13;;;11.50;99.90;;;;;;5058544;28;20049;-73
2023/04/18 08:27:39;;;;;;;26.00;13.75;;;11.70;99.90;;;;;;5059990;28;20071;-70
2023/04/18 08:30:05;;;;;;;24.30;13.25;;;11.80;99.90;;;;;;5062489;28;20044;-73
2023/04/18 08:32:31;;;;;;;17.20;11.13;;;11.90;99.90;;;;;;5059474;28;20030;-74
2023/04/18 08:34:57;;;;;;;17.85;11.48;;;12.00;99.90;;;;;;5060058;28;20550;-73
2023/04/18 08:37:23;;;;;;;19.45;11.30;;;12.10;99.90;;;;;;5062456;28;20029;-71
2023/04/18 08:39:49;;;;;;;18.23;10.90;;;12.30;99.90;;;;;;5063367;28;20048;-71
2023/04/18 08:42:18;;;;;;;17.45;10.85;;;12.50;99.90;;;;;;5060574;28;20032;-73
2023/04/18 08:44:46;;;;;;;15.93;9.70;;;12.60;99.90;;;;;;5059157;28;20049;-71
2023/04/18 08:47:12;;;;;;;13.98;9.00;;;12.90;99.90;;;;;;5060895;28;20087;-72
2023/04/18 08:49:38;;;;;;;19.15;9.20;;;13.00;99.90;;;;;;5059422;28;20030;-71
2023/04/18 08:52:10;;;;;;;11.27;7.30;;;13.10;99.90;;;;;;5058520;28;20111;-74
2023/04/18 08:54:37;;;;;;;13.25;7.07;;;13.40;99.90;;;;;;5060346;28;20485;-71
2023/04/18 08:57:07;;;;;;;9.25;5.85;;;13.50;99.90;;;;;;5061061;28;20021;-71
2023/04/18 08:59:36;;;;;;;9.68;6.25;;;13.60;99.90;;;;;;5062936;28;20092;-71
2023/04/18 09:02:05;;;;;;;9.65;6.18;;;13.70;99.90;;;;;;5059848;28;20505;-70
2023/04/18 09:04:33;;;;;;;8.95;5.60;;;13.80;99.90;;;;;;5061331;28;20036;-71
2023/04/18 09:06:59;;;;;;;11.45;6.28;;;13.80;99.90;;;;;;5060607;28;20041;-72
2023/04/18 09:09:26;;;;;;;7.53;5.55;;;13.90;99.90;;;;;;5062300;28;20200;-70
2023/04/18 09:12:04;;;;;;;6.70;4.57;;;13.90;99.90;;;;;;5060789;28;20031;-72
2023/04/18 09:14:31;;;;;;;6.35;3.88;;;13.90;99.90;;;;;;5061730;28;20035;-73
2023/04/18 09:16:56;;;;;;;5.25;3.92;;;14.00;99.90;;;;;;5061895;28;20024;-73
2023/04/18 09:19:22;;;;;;;8.50;3.95;;;14.00;99.90;;;;;;5058956;28;20029;-73
2023/04/18 09:21:59;;;;;;;6.35;4.05;;;14.00;99.90;;;;;;5060352;28;20021;-72
2023/04/18 09:24:27;;;;;;;5.45;3.78;;;14.20;99.90;;;;;;5061431;28;20032;-73
2023/04/18 09:26:54;;;;;;;6.35;4.22;;;14.30;99.90;;;;;;5060583;28;20087;-72
2023/04/18 09:29:23;;;;;;;6.53;4.57;;;14.50;99.90;;;;;;5061954;28;20032;-72
2023/04/18 09:32:00;;;;;;;5.72;4.18;;;14.40;99.90;;;;;;5061484;28;20100;-74
2023/04/18 09:34:26;;;;;;;6.60;3.70;;;14.30;99.90;;;;;;5061139;28;20028;-73
2023/04/18 09:37:12;;;;;;;5.55;3.65;;;14.50;99.90;;;;;;5060585;28;20037;-72
2023/04/18 09:39:39;;;;;;;6.75;4.13;;;14.60;99.90;;;;;;5060805;28;20021;-73
2023/04/18 09:42:05;;;;;;;5.53;4.10;;;14.60;99.90;;;;;;5060220;28;20032;-72
2023/04/18 09:44:31;;;;;;;5.22;3.88;;;14.80;99.90;;;;;;5060145;28;20418;-73
2023/04/18 09:46:57;;;;;;;10.30;4.55;;;14.90;99.90;;;;;;5060513;28;20041;-70
2023/04/18 09:49:23;;;;;;;5.82;4.47;;;15.10;99.90;;;;;;5059850;28;20017;-73
2023/04/18 09:51:51;;;;;;;6.05;4.45;;;15.30;99.90;;;;;;5059667;28;20048;-71
2023/04/18 09:54:17;;;;;;;5.78;4.38;;;15.50;99.90;;;;;;5060342;28;20060;-71
2023/04/18 09:56:44;;;;;;;7.05;4.63;;;15.60;99.90;;;;;;5059408;28;20059;-72
2023/04/18 09:59:11;;;;;;;6.95;4.63;;;15.70;99.90;;;;;;5051699;28;20033;-74
2023/04/18 10:01:38;;;;;;;12.25;4.57;;;15.90;99.90;;;;;;5056326;28;20033;-70
2023/04/18 10:04:07;;;;;;;9.65;5.00;;;15.90;99.90;;;;;;5062033;28;20040;-70
2023/04/18 10:06:38;;;;;;;10.60;4.90;;;15.80;99.90;;;;;;5058971;28;20029;-71
2023/04/18 10:09:04;;;;;;;8.25;5.63;;;15.70;99.90;;;;;;5058995;28;20020;-71
2023/04/18 10:11:30;;;;;;;9.00;5.88;;;15.70;99.90;;;;;;5062021;28;20439;-71
2023/04/18 10:14:00;;;;;;;8.63;6.10;;;15.60;99.90;;;;;;5062326;28;20025;-71
2023/04/18 10:16:28;;;;;;;9.25;6.28;;;15.80;99.90;;;;;;5062076;28;20025;-73
2023/04/18 10:18:54;;;;;;;12.60;7.20;;;15.80;99.90;;;;;;5059511;28;20029;-73
2023/04/18 10:21:20;;;;;;;10.95;7.05;;;15.70;99.90;;;;;;5060143;28;20036;-71
2023/04/18 10:23:47;;;;;;;9.23;7.18;;;15.60;99.90;;;;;;5059666;28;20052;-73
2023/04/18 10:26:14;;;;;;;12.10;7.25;;;15.40;99.90;;;;;;5061127;28;20024;-71
2023/04/18 10:28:55;;;;;;;11.35;7.72;;;15.20;99.90;;;;;;5061805;28;20040;-72
2023/04/18 10:31:26;;;;;;;12.43;7.43;;;15.20;99.90;;;;;;5062496;28;20025;-70
2023/04/18 10:33:56;;;;;;;13.98;7.97;;;15.20;99.90;;;;;;5065847;28;20032;-71
2023/04/18 10:36:22;;;;;;;11.55;8.20;;;15.40;99.90;;;;;;5064523;28;20021;-72
2023/04/18 10:38:59;;;;;;;13.02;8.68;;;15.50;99.90;;;;;;5065947;28;20040;-71
2023/04/18 10:41:32;;;;;;;12.27;8.15;;;15.40;99.90;;;;;;5064922;28;20032;-71
2023/04/18 10:44:07;;;;;;;11.13;8.10;;;15.20;99.90;;;;;;5063815;28;20035;-71
2023/04/18 10:46:36;;;;;;;12.90;8.20;;;15.20;99.90;;;;;;5065146;28;20028;-73
2023/04/18 10:49:15;;;;;;;10.43;8.18;;;15.20;99.90;;;;;;5064087;28;20033;-72
2023/04/18 10:51:45;;;;;;;14.25;8.30;;;15.20;99.90;;;;;;5064046;28;20032;-75
2023/04/18 10:54:34;;;;;;;13.27;8.85;;;15.20;99.90;;;;;;5065434;28;20347;-74
2023/04/18 10:57:02;;;;;;;13.57;9.13;;;15.10;99.90;;;;;;5065005;28;20040;-72
2023/04/18 10:59:30;;;;;;;15.55;8.88;;;14.80;99.90;;;;;;5065536;28;20108;-73
2023/04/18 11:02:03;;;;;;;16.30;9.45;;;14.60;99.90;;;;;;5065001;28;20094;-71
2023/04/18 11:04:29;;;;;;;16.60;9.82;;;14.50;99.90;;;;;;5064947;28;20024;-71
2023/04/18 11:06:56;;;;;;;16.15;9.30;;;14.30;99.90;;;;;;5065108;28;20033;-73
2023/04/18 11:09:23;;;;;;;18.80;10.05;;;14.30;99.90;;;;;;5063276;28;20386;-71
2023/04/18 11:12:10;;;;;;;19.75;10.15;;;14.20;99.90;;;;;;5065056;28;20524;-72
2023/04/18 11:14:49;;;;;;;16.55;10.55;;;14.00;99.90;;;;;;5063299;28;20033;-72
2023/04/18 11:17:19;;;;;;;16.38;9.98;;;14.00;99.90;;;;;;5064883;28;20097;-72
2023/04/18 11:19:45;;;;;;;19.55;10.30;;;14.00;99.90;;;;;;5063394;28;20025;-72
2023/04/18 11:22:11;;;;;;;19.60;10.27;;;14.20;99.90;;;;;;5064417;28;20059;-72
2023/04/18 11:24:36;;;;;;;15.25;9.18;;;14.20;99.90;;;;;;5063687;28;20028;-73
2023/04/18 11:27:03;;;;;;;14.95;9.45;;;14.20;99.90;;;;;;5064636;28;20045;-71
2023/04/18 11:29:29;;;;;;;12.70;8.60;;;14.10;99.90;;;;;;5063008;28;20397;-71
2023/04/18 11:31:54;;;;;;;15.05;9.52;;;14.00;99.90;;;;;;5064810;28;20235;-70
2023/04/18 11:34:20;;;;;;;11.40;8.70;;;13.80;99.90;;;;;;5064727;28;20041;-71
2023/04/18 11:36:50;;;;;;;12.85;9.20;;;13.60;99.90;;;;;;5064857;28;20028;-70
2023/04/18 11:39:16;;;;;;;14.15;8.73;;;13.60;99.90;;;;;;5064451;28;20494;-73
2023/04/18 11:41:47;;;;;;;14.95;9.60;;;13.50;99.90;;;;;;5064695;28;20035;-73
2023/04/18 11:44:14;;;;;;;16.00;9.98;;;13.50;99.90;;;;;;5062049;28;20055;-70
2023/04/18 11:46:40;;;;;;;14.27;9.93;;;13.40;99.90;;;;;;5064598;28;20688;-70
2023/04/18 11:49:06;;;;;;;14.73;9.20;;;13.30;99.90;;;;;;5064042;28;20021;-72
2023/04/18 11:51:37;;;;;;;18.38;9.70;;;13.20;99.90;;;;;;5063048;28;20067;-70
2023/04/18 11:54:03;;;;;;;14.63;9.75;;;13.20;99.90;;;;;;5064324;28;20565;-70
2023/04/18 11:56:29;;;;;;;14.20;9.75;;;13.10;99.90;;;;;;5064175;28;20413;-71
2023/04/18 11:58:55;;;;;;;21.83;10.13;;;13.20;99.90;;;;;;5064373;28;20029;-71
2023/04/18 12:01:22;;;;;;;14.40;10.13;;;13.20;99.90;;;;;;5062943;28;20513;-71
2023/04/18 12:04:07;;;;;;;14.27;8.70;;;13.20;99.90;;;;;;5062744;28;20021;-71
2023/04/18 12:06:50;;;;;;;14.45;8.90;;;13.20;99.90;;;;;;5063554;28;20032;-72
2023/04/18 12:09:16;;;;;;;15.05;8.75;;;13.20;99.90;;;;;;5062684;28;20025;-72
2023/04/18 12:11:42;;;;;;;13.65;8.38;;;13.30;99.90;;;;;;5063027;28;20021;-70
2023/04/18 12:14:27;;;;;;;13.65;8.32;;;13.30;99.90;;;;;;5064199;28;20039;-71
2023/04/18 12:16:53;;;;;;;;;;;13.20;99.90;;;;;;5064274;28;20021;-70
2023/04/18 12:19:19;;;;;;;12.45;7.55;;;13.20;99.90;;;;;;5062481;28;19959;-70
2023/04/18 12:21:56;;;;;;;12.85;8.15;;;13.20;99.90;;;;;;5062825;28;20021;-72
2023/04/18 12:24:25;;;;;;;11.15;7.40;;;13.30;99.90;;;;;;5062884;28;20093;-68
2023/04/18 12:26:51;;;;;;;14.25;8.00;;;13.30;99.90;;;;;;5063381;28;20088;-72
2023/04/18 12:29:17;;;;;;;11.85;7.80;;;13.40;99.90;;;;;;5063862;28;20021;-72
2023/04/18 12:31:46;;;;;;;9.90;6.88;;;13.50;99.90;;;;;;5062238;28;20027;-73
2023/04/18 12:34:12;;;;;;;10.45;6.97;;;13.60;99.90;;;;;;5063572;28;20036;-71
2023/04/18 12:36:38;;;;;;;11.05;6.72;;;13.70;99.90;;;;;;5063699;28;20029;-72